Hauptseite
METAR-TAF:

METAR-TAF

Flughäfen :

Hohenfels, Deutschland

Breite: 49-13N, Länge: 011-50E, Höhe: 442 m

Beobachtung

Neuester Wetterbericht von vor 11 Minuten, um 16:56 UTC
Wind 6 kt aus West/Südwest
Temperatur 4°C
Luftfeuchtigkeit 100%
Luftdruck 997 hPa
Sichtweite 10 km oder mehr
Leicht bewölkt in der Höhe von 4300 ft
Durchbrochene Bewölkung in der Höhe von 5000 ft

METAR: ETIH 161656Z AUTO 24006KT 9999 FEW043 BKN050 04/04 A2944 RMK AO2 SLP987 T00380037 $

Zeit: 18:07 (17:07 UTC)


TAF: fehlend

Wetterbeobachtungen und Prognosen von mehr als 4000 Flughäfen (METAR und TAF Bericht).

Die verfügbaren Stationen werden durch gelbe und rote Markierungen auf der Karte dargestellt.

Führen Sie die Maus auf sie, um den Namen der Station zu sehen.

Darauf klicken, um die Beobachtung von Wetterbeobachtungen und Prognosen zu sehen.

Um die Karte zu ändern : klicken Sie auf den grünen Tasten mit einem schwarzen Kreuz Zum Vergrößern, auf den grünen Button mit einem Gedankenstrich zu verkleinern, oder auf die grünen Pfeile für benachbarte Karten.


METAR-TAF: